sensor_id;sensor_type;location;lat;lon;timestamp;P1;durP1;ratioP1;P2;durP2;ratioP2
5961;SDS011;3007;50.770;0.250;2022-12-18T00:02:17;16.70;;;10.50;;
5961;SDS011;3007;50.770;0.250;2022-12-18T00:04:44;20.73;;;11.60;;
5961;SDS011;3007;50.770;0.250;2022-12-18T00:07:12;21.20;;;12.13;;
5961;SDS011;3007;50.770;0.250;2022-12-18T00:09:39;23.23;;;11.43;;
5961;SDS011;3007;50.770;0.250;2022-12-18T00:12:07;21.73;;;11.33;;
5961;SDS011;3007;50.770;0.250;2022-12-18T00:14:34;19.73;;;11.30;;
5961;SDS011;3007;50.770;0.250;2022-12-18T00:17:02;20.17;;;10.67;;
5961;SDS011;3007;50.770;0.250;2022-12-18T00:19:29;23.40;;;11.20;;
5961;SDS011;3007;50.770;0.250;2022-12-18T00:21:56;22.13;;;11.20;;
5961;SDS011;3007;50.770;0.250;2022-12-18T00:24:25;20.73;;;10.33;;
5961;SDS011;3007;50.770;0.250;2022-12-18T00:26:52;26.63;;;10.77;;
5961;SDS011;3007;50.770;0.250;2022-12-18T00:29:19;20.67;;;10.63;;
5961;SDS011;3007;50.770;0.250;2022-12-18T00:31:46;20.30;;;11.30;;
5961;SDS011;3007;50.770;0.250;2022-12-18T00:34:13;22.80;;;10.33;;
5961;SDS011;3007;50.770;0.250;2022-12-18T00:36:41;21.77;;;11.50;;
5961;SDS011;3007;50.770;0.250;2022-12-18T00:39:09;20.43;;;10.83;;
5961;SDS011;3007;50.770;0.250;2022-12-18T00:41:38;20.83;;;9.93;;
5961;SDS011;3007;50.770;0.250;2022-12-18T00:44:23;18.40;;;10.83;;
5961;SDS011;3007;50.770;0.250;2022-12-18T00:46:50;29.30;;;12.30;;
5961;SDS011;3007;50.770;0.250;2022-12-18T00:49:18;19.27;;;10.33;;
5961;SDS011;3007;50.770;0.250;2022-12-18T00:51:46;20.47;;;9.93;;
5961;SDS011;3007;50.770;0.250;2022-12-18T00:54:14;18.40;;;9.13;;
5961;SDS011;3007;50.770;0.250;2022-12-18T00:56:43;18.47;;;9.30;;
5961;SDS011;3007;50.770;0.250;2022-12-18T00:59:10;16.37;;;9.83;;
5961;SDS011;3007;50.770;0.250;2022-12-18T01:01:37;20.83;;;8.40;;
5961;SDS011;3007;50.770;0.250;2022-12-18T01:04:04;15.23;;;8.60;;
5961;SDS011;3007;50.770;0.250;2022-12-18T01:06:32;17.50;;;8.37;;
5961;SDS011;3007;50.770;0.250;2022-12-18T01:09:01;16.67;;;8.07;;
5961;SDS011;3007;50.770;0.250;2022-12-18T01:11:29;19.40;;;8.53;;
5961;SDS011;3007;50.770;0.250;2022-12-18T01:13:58;13.10;;;7.70;;
5961;SDS011;3007;50.770;0.250;2022-12-18T01:16:27;12.53;;;7.10;;
5961;SDS011;3007;50.770;0.250;2022-12-18T01:18:54;17.53;;;7.97;;
5961;SDS011;3007;50.770;0.250;2022-12-18T01:21:22;17.20;;;7.83;;
5961;SDS011;3007;50.770;0.250;2022-12-18T01:23:51;13.67;;;6.43;;
5961;SDS011;3007;50.770;0.250;2022-12-18T01:26:18;13.57;;;7.37;;
5961;SDS011;3007;50.770;0.250;2022-12-18T01:28:46;13.33;;;6.77;;
5961;SDS011;3007;50.770;0.250;2022-12-18T01:31:16;10.17;;;6.37;;
5961;SDS011;3007;50.770;0.250;2022-12-18T01:33:44;14.67;;;7.23;;
5961;SDS011;3007;50.770;0.250;2022-12-18T01:36:15;14.47;;;6.43;;
5961;SDS011;3007;50.770;0.250;2022-12-18T01:38:44;11.13;;;6.33;;
5961;SDS011;3007;50.770;0.250;2022-12-18T01:41:11;9.83;;;6.10;;
5961;SDS011;3007;50.770;0.250;2022-12-18T01:43:46;12.53;;;6.17;;
5961;SDS011;3007;50.770;0.250;2022-12-18T01:46:17;11.43;;;5.73;;
5961;SDS011;3007;50.770;0.250;2022-12-18T01:48:47;15.20;;;6.30;;
5961;SDS011;3007;50.770;0.250;2022-12-18T01:51:16;9.33;;;5.83;;
5961;SDS011;3007;50.770;0.250;2022-12-18T01:53:44;14.10;;;6.50;;
5961;SDS011;3007;50.770;0.250;2022-12-18T01:56:12;13.73;;;6.47;;
5961;SDS011;3007;50.770;0.250;2022-12-18T01:58:44;11.93;;;6.40;;
5961;SDS011;3007;50.770;0.250;2022-12-18T02:01:17;13.47;;;6.53;;
5961;SDS011;3007;50.770;0.250;2022-12-18T02:03:46;14.73;;;6.87;;
5961;SDS011;3007;50.770;0.250;2022-12-18T02:06:15;10.80;;;7.07;;
5961;SDS011;3007;50.770;0.250;2022-12-18T02:08:45;12.90;;;6.83;;
5961;SDS011;3007;50.770;0.250;2022-12-18T02:11:21;11.70;;;7.33;;
5961;SDS011;3007;50.770;0.250;2022-12-18T02:13:53;11.23;;;6.23;;
5961;SDS011;3007;50.770;0.250;2022-12-18T02:16:32;12.13;;;6.57;;
5961;SDS011;3007;50.770;0.250;2022-12-18T02:19:15;14.13;;;6.87;;
5961;SDS011;3007;50.770;0.250;2022-12-18T02:21:55;12.03;;;6.77;;
5961;SDS011;3007;50.770;0.250;2022-12-18T02:24:37;12.57;;;6.87;;
5961;SDS011;3007;50.770;0.250;2022-12-18T02:27:14;15.33;;;7.37;;
5961;SDS011;3007;50.770;0.250;2022-12-18T02:29:42;14.00;;;6.57;;
5961;SDS011;3007;50.770;0.250;2022-12-18T02:32:14;12.13;;;6.73;;
5961;SDS011;3007;50.770;0.250;2022-12-18T02:34:44;12.87;;;6.43;;
5961;SDS011;3007;50.770;0.250;2022-12-18T02:37:14;11.97;;;6.67;;
5961;SDS011;3007;50.770;0.250;2022-12-18T02:39:44;8.83;;;5.93;;
5961;SDS011;3007;50.770;0.250;2022-12-18T02:42:15;14.07;;;6.47;;
5961;SDS011;3007;50.770;0.250;2022-12-18T02:44:44;19.27;;;7.53;;
5961;SDS011;3007;50.770;0.250;2022-12-18T02:47:13;11.73;;;6.33;;
5961;SDS011;3007;50.770;0.250;2022-12-18T02:49:44;9.73;;;6.37;;
5961;SDS011;3007;50.770;0.250;2022-12-18T02:52:22;10.77;;;6.27;;
5961;SDS011;3007;50.770;0.250;2022-12-18T02:54:57;14.17;;;6.87;;
5961;SDS011;3007;50.770;0.250;2022-12-18T02:57:35;10.20;;;6.63;;
5961;SDS011;3007;50.770;0.250;2022-12-18T03:00:09;11.40;;;6.73;;
5961;SDS011;3007;50.770;0.250;2022-12-18T03:02:39;11.57;;;6.00;;
5961;SDS011;3007;50.770;0.250;2022-12-18T03:05:12;13.00;;;6.23;;
5961;SDS011;3007;50.770;0.250;2022-12-18T03:07:42;16.97;;;6.43;;
5961;SDS011;3007;50.770;0.250;2022-12-18T03:10:16;12.47;;;6.90;;
5961;SDS011;3007;50.770;0.250;2022-12-18T03:12:50;15.87;;;6.50;;
5961;SDS011;3007;50.770;0.250;2022-12-18T03:15:21;10.63;;;6.40;;
5961;SDS011;3007;50.770;0.250;2022-12-18T03:17:52;15.47;;;7.10;;
5961;SDS011;3007;50.770;0.250;2022-12-18T03:20:24;11.00;;;6.93;;
5961;SDS011;3007;50.770;0.250;2022-12-18T03:22:53;12.17;;;6.73;;
5961;SDS011;3007;50.770;0.250;2022-12-18T03:25:26;11.87;;;6.57;;
5961;SDS011;3007;50.770;0.250;2022-12-18T03:27:58;15.73;;;7.10;;
5961;SDS011;3007;50.770;0.250;2022-12-18T03:30:29;7.93;;;5.73;;
5961;SDS011;3007;50.770;0.250;2022-12-18T03:33:00;11.87;;;6.33;;
5961;SDS011;3007;50.770;0.250;2022-12-18T03:35:31;13.73;;;7.00;;
5961;SDS011;3007;50.770;0.250;2022-12-18T03:38:02;12.37;;;7.37;;
5961;SDS011;3007;50.770;0.250;2022-12-18T03:40:31;10.33;;;6.87;;
5961;SDS011;3007;50.770;0.250;2022-12-18T03:43:06;15.17;;;7.03;;
5961;SDS011;3007;50.770;0.250;2022-12-18T03:45:38;16.57;;;7.23;;
5961;SDS011;3007;50.770;0.250;2022-12-18T03:48:14;11.53;;;6.03;;
5961;SDS011;3007;50.770;0.250;2022-12-18T03:50:46;10.83;;;5.47;;
5961;SDS011;3007;50.770;0.250;2022-12-18T03:53:23;13.93;;;6.83;;
5961;SDS011;3007;50.770;0.250;2022-12-18T03:55:55;9.63;;;6.07;;
5961;SDS011;3007;50.770;0.250;2022-12-18T03:58:25;11.57;;;6.73;;
5961;SDS011;3007;50.770;0.250;2022-12-18T04:00:55;15.53;;;6.57;;
5961;SDS011;3007;50.770;0.250;2022-12-18T04:03:25;13.50;;;7.23;;
5961;SDS011;3007;50.770;0.250;2022-12-18T04:05:54;12.83;;;6.53;;
5961;SDS011;3007;50.770;0.250;2022-12-18T04:08:21;11.07;;;6.57;;
5961;SDS011;3007;50.770;0.250;2022-12-18T04:10:49;12.23;;;6.40;;
5961;SDS011;3007;50.770;0.250;2022-12-18T04:13:21;9.60;;;5.67;;
5961;SDS011;3007;50.770;0.250;2022-12-18T04:15:50;15.67;;;6.27;;
5961;SDS011;3007;50.770;0.250;2022-12-18T04:18:17;12.47;;;7.13;;
5961;SDS011;3007;50.770;0.250;2022-12-18T04:20:45;10.00;;;6.50;;
5961;SDS011;3007;50.770;0.250;2022-12-18T04:23:12;11.07;;;5.90;;
5961;SDS011;3007;50.770;0.250;2022-12-18T04:25:39;11.37;;;5.87;;
5961;SDS011;3007;50.770;0.250;2022-12-18T04:28:06;9.53;;;5.47;;
5961;SDS011;3007;50.770;0.250;2022-12-18T04:30:33;11.47;;;5.50;;
5961;SDS011;3007;50.770;0.250;2022-12-18T04:33:02;9.13;;;5.50;;
5961;SDS011;3007;50.770;0.250;2022-12-18T04:35:29;10.03;;;6.43;;
5961;SDS011;3007;50.770;0.250;2022-12-18T04:37:56;9.43;;;5.37;;
5961;SDS011;3007;50.770;0.250;2022-12-18T04:40:23;8.43;;;5.33;;
5961;SDS011;3007;50.770;0.250;2022-12-18T04:42:50;9.80;;;5.70;;
5961;SDS011;3007;50.770;0.250;2022-12-18T04:45:17;8.30;;;5.23;;
5961;SDS011;3007;50.770;0.250;2022-12-18T04:47:45;11.13;;;5.80;;
5961;SDS011;3007;50.770;0.250;2022-12-18T04:50:13;12.00;;;6.33;;
5961;SDS011;3007;50.770;0.250;2022-12-18T04:52:40;8.67;;;5.37;;
5961;SDS011;3007;50.770;0.250;2022-12-18T04:55:07;10.57;;;5.83;;
5961;SDS011;3007;50.770;0.250;2022-12-18T04:57:35;10.93;;;5.83;;
5961;SDS011;3007;50.770;0.250;2022-12-18T05:00:02;9.30;;;5.33;;
5961;SDS011;3007;50.770;0.250;2022-12-18T05:02:31;9.20;;;5.63;;
5961;SDS011;3007;50.770;0.250;2022-12-18T05:04:58;11.57;;;6.43;;
5961;SDS011;3007;50.770;0.250;2022-12-18T05:07:26;13.77;;;6.43;;
5961;SDS011;3007;50.770;0.250;2022-12-18T05:09:53;9.57;;;6.07;;
5961;SDS011;3007;50.770;0.250;2022-12-18T05:12:21;7.67;;;4.97;;
5961;SDS011;3007;50.770;0.250;2022-12-18T05:14:51;9.10;;;5.60;;
5961;SDS011;3007;50.770;0.250;2022-12-18T05:17:18;9.37;;;5.33;;
5961;SDS011;3007;50.770;0.250;2022-12-18T05:19:45;9.13;;;4.83;;
5961;SDS011;3007;50.770;0.250;2022-12-18T05:22:12;10.40;;;6.23;;
5961;SDS011;3007;50.770;0.250;2022-12-18T05:24:41;11.33;;;5.93;;
5961;SDS011;3007;50.770;0.250;2022-12-18T05:27:08;14.53;;;6.57;;
5961;SDS011;3007;50.770;0.250;2022-12-18T05:29:35;8.93;;;5.70;;
5961;SDS011;3007;50.770;0.250;2022-12-18T05:32:02;10.57;;;5.00;;
5961;SDS011;3007;50.770;0.250;2022-12-18T05:34:29;8.40;;;5.37;;
5961;SDS011;3007;50.770;0.250;2022-12-18T05:36:56;12.73;;;5.47;;
5961;SDS011;3007;50.770;0.250;2022-12-18T05:39:24;7.73;;;5.27;;
5961;SDS011;3007;50.770;0.250;2022-12-18T05:41:53;8.60;;;5.20;;
5961;SDS011;3007;50.770;0.250;2022-12-18T05:44:20;9.57;;;5.87;;
5961;SDS011;3007;50.770;0.250;2022-12-18T05:46:47;9.73;;;5.20;;
5961;SDS011;3007;50.770;0.250;2022-12-18T05:49:17;10.80;;;6.43;;
5961;SDS011;3007;50.770;0.250;2022-12-18T05:51:44;8.00;;;5.30;;
5961;SDS011;3007;50.770;0.250;2022-12-18T05:54:11;9.10;;;5.43;;
5961;SDS011;3007;50.770;0.250;2022-12-18T05:56:38;8.90;;;5.33;;
5961;SDS011;3007;50.770;0.250;2022-12-18T05:59:07;11.63;;;6.30;;
5961;SDS011;3007;50.770;0.250;2022-12-18T06:01:34;12.00;;;5.43;;
5961;SDS011;3007;50.770;0.250;2022-12-18T06:04:02;11.77;;;5.80;;
5961;SDS011;3007;50.770;0.250;2022-12-18T06:06:29;8.90;;;6.07;;
5961;SDS011;3007;50.770;0.250;2022-12-18T06:08:56;11.53;;;6.43;;
5961;SDS011;3007;50.770;0.250;2022-12-18T06:11:25;10.73;;;6.53;;
5961;SDS011;3007;50.770;0.250;2022-12-18T06:13:53;11.70;;;7.27;;
5961;SDS011;3007;50.770;0.250;2022-12-18T06:16:22;15.63;;;6.80;;
5961;SDS011;3007;50.770;0.250;2022-12-18T06:18:49;12.77;;;7.03;;
5961;SDS011;3007;50.770;0.250;2022-12-18T06:21:17;15.13;;;6.60;;
5961;SDS011;3007;50.770;0.250;2022-12-18T06:23:45;13.07;;;7.57;;
5961;SDS011;3007;50.770;0.250;2022-12-18T06:26:12;10.83;;;6.50;;
5961;SDS011;3007;50.770;0.250;2022-12-18T06:28:40;12.50;;;6.60;;
5961;SDS011;3007;50.770;0.250;2022-12-18T06:31:07;11.57;;;6.23;;
5961;SDS011;3007;50.770;0.250;2022-12-18T06:33:36;11.57;;;6.63;;
5961;SDS011;3007;50.770;0.250;2022-12-18T06:36:05;13.80;;;7.07;;
5961;SDS011;3007;50.770;0.250;2022-12-18T06:38:34;10.97;;;6.60;;
5961;SDS011;3007;50.770;0.250;2022-12-18T06:41:05;13.23;;;7.27;;
5961;SDS011;3007;50.770;0.250;2022-12-18T06:43:33;11.70;;;6.63;;
5961;SDS011;3007;50.770;0.250;2022-12-18T06:46:00;11.50;;;6.70;;
5961;SDS011;3007;50.770;0.250;2022-12-18T06:48:27;11.33;;;6.47;;
5961;SDS011;3007;50.770;0.250;2022-12-18T06:50:56;11.93;;;7.27;;
5961;SDS011;3007;50.770;0.250;2022-12-18T06:53:23;14.23;;;7.90;;
5961;SDS011;3007;50.770;0.250;2022-12-18T06:55:51;13.73;;;7.00;;
5961;SDS011;3007;50.770;0.250;2022-12-18T06:58:18;14.80;;;7.37;;
5961;SDS011;3007;50.770;0.250;2022-12-18T07:00:45;11.40;;;7.43;;
5961;SDS011;3007;50.770;0.250;2022-12-18T07:03:12;20.40;;;8.80;;
5961;SDS011;3007;50.770;0.250;2022-12-18T07:05:39;12.33;;;7.37;;
5961;SDS011;3007;50.770;0.250;2022-12-18T07:08:08;15.83;;;8.20;;
5961;SDS011;3007;50.770;0.250;2022-12-18T07:10:40;17.90;;;8.40;;
5961;SDS011;3007;50.770;0.250;2022-12-18T07:13:07;13.87;;;8.20;;
5961;SDS011;3007;50.770;0.250;2022-12-18T07:15:35;15.67;;;8.40;;
5961;SDS011;3007;50.770;0.250;2022-12-18T07:18:02;15.03;;;8.23;;
5961;SDS011;3007;50.770;0.250;2022-12-18T07:20:29;11.10;;;7.53;;
5961;SDS011;3007;50.770;0.250;2022-12-18T07:22:56;15.17;;;8.23;;
5961;SDS011;3007;50.770;0.250;2022-12-18T07:25:25;15.90;;;9.27;;
5961;SDS011;3007;50.770;0.250;2022-12-18T07:27:52;13.13;;;8.40;;
5961;SDS011;3007;50.770;0.250;2022-12-18T07:30:19;14.47;;;8.93;;
5961;SDS011;3007;50.770;0.250;2022-12-18T07:32:46;16.53;;;9.30;;
5961;SDS011;3007;50.770;0.250;2022-12-18T07:35:13;16.80;;;9.57;;
5961;SDS011;3007;50.770;0.250;2022-12-18T07:37:40;20.20;;;9.80;;
5961;SDS011;3007;50.770;0.250;2022-12-18T07:40:08;14.33;;;9.17;;
5961;SDS011;3007;50.770;0.250;2022-12-18T07:42:38;15.70;;;8.80;;
5961;SDS011;3007;50.770;0.250;2022-12-18T07:45:05;13.93;;;8.97;;
5961;SDS011;3007;50.770;0.250;2022-12-18T07:47:33;16.30;;;9.07;;
5961;SDS011;3007;50.770;0.250;2022-12-18T07:50:01;14.83;;;9.17;;
5961;SDS011;3007;50.770;0.250;2022-12-18T07:52:29;16.47;;;9.23;;
5961;SDS011;3007;50.770;0.250;2022-12-18T07:54:56;14.27;;;8.90;;
5961;SDS011;3007;50.770;0.250;2022-12-18T07:57:23;15.50;;;8.73;;
5961;SDS011;3007;50.770;0.250;2022-12-18T07:59:52;23.80;;;9.77;;
5961;SDS011;3007;50.770;0.250;2022-12-18T08:02:19;14.07;;;9.13;;
5961;SDS011;3007;50.770;0.250;2022-12-18T08:04:46;19.00;;;10.13;;
5961;SDS011;3007;50.770;0.250;2022-12-18T08:07:13;20.93;;;9.77;;
5961;SDS011;3007;50.770;0.250;2022-12-18T08:09:40;17.57;;;9.20;;
5961;SDS011;3007;50.770;0.250;2022-12-18T08:12:07;17.67;;;9.43;;
5961;SDS011;3007;50.770;0.250;2022-12-18T08:14:34;14.70;;;9.83;;
5961;SDS011;3007;50.770;0.250;2022-12-18T08:17:03;18.40;;;10.97;;
5961;SDS011;3007;50.770;0.250;2022-12-18T08:19:30;18.20;;;10.87;;
5961;SDS011;3007;50.770;0.250;2022-12-18T08:21:57;21.30;;;11.47;;
5961;SDS011;3007;50.770;0.250;2022-12-18T08:24:24;21.93;;;12.10;;
5961;SDS011;3007;50.770;0.250;2022-12-18T08:26:51;21.13;;;10.93;;
5961;SDS011;3007;50.770;0.250;2022-12-18T08:29:19;22.10;;;11.40;;
5961;SDS011;3007;50.770;0.250;2022-12-18T08:31:46;16.67;;;11.43;;
5961;SDS011;3007;50.770;0.250;2022-12-18T08:34:14;20.10;;;11.43;;
5961;SDS011;3007;50.770;0.250;2022-12-18T08:36:41;17.97;;;11.33;;
5961;SDS011;3007;50.770;0.250;2022-12-18T08:39:08;19.47;;;11.93;;
5961;SDS011;3007;50.770;0.250;2022-12-18T08:41:36;21.33;;;12.70;;
5961;SDS011;3007;50.770;0.250;2022-12-18T08:44:03;22.00;;;12.43;;
5961;SDS011;3007;50.770;0.250;2022-12-18T08:46:47;21.47;;;12.47;;
5961;SDS011;3007;50.770;0.250;2022-12-18T08:49:16;18.43;;;12.40;;
5961;SDS011;3007;50.770;0.250;2022-12-18T08:51:43;22.73;;;12.60;;
5961;SDS011;3007;50.770;0.250;2022-12-18T08:54:11;23.40;;;15.13;;
5961;SDS011;3007;50.770;0.250;2022-12-18T08:56:38;23.17;;;13.33;;
5961;SDS011;3007;50.770;0.250;2022-12-18T08:59:06;24.37;;;13.50;;
5961;SDS011;3007;50.770;0.250;2022-12-18T09:01:33;22.00;;;13.60;;
5961;SDS011;3007;50.770;0.250;2022-12-18T09:04:00;22.70;;;12.80;;
5961;SDS011;3007;50.770;0.250;2022-12-18T09:06:28;21.73;;;13.07;;
5961;SDS011;3007;50.770;0.250;2022-12-18T09:08:56;17.83;;;12.20;;
5961;SDS011;3007;50.770;0.250;2022-12-18T09:11:24;23.43;;;13.93;;
5961;SDS011;3007;50.770;0.250;2022-12-18T09:13:53;23.87;;;13.43;;
5961;SDS011;3007;50.770;0.250;2022-12-18T09:16:20;22.93;;;12.10;;
5961;SDS011;3007;50.770;0.250;2022-12-18T09:18:48;22.97;;;12.93;;
5961;SDS011;3007;50.770;0.250;2022-12-18T09:21:16;26.87;;;13.73;;
5961;SDS011;3007;50.770;0.250;2022-12-18T09:23:50;29.87;;;17.13;;
5961;SDS011;3007;50.770;0.250;2022-12-18T09:26:17;23.00;;;13.33;;
5961;SDS011;3007;50.770;0.250;2022-12-18T09:28:44;24.23;;;15.00;;
5961;SDS011;3007;50.770;0.250;2022-12-18T09:31:12;23.60;;;14.73;;
5961;SDS011;3007;50.770;0.250;2022-12-18T09:33:42;21.37;;;12.73;;
5961;SDS011;3007;50.770;0.250;2022-12-18T09:36:11;22.30;;;12.93;;
5961;SDS011;3007;50.770;0.250;2022-12-18T09:38:39;23.67;;;13.47;;
5961;SDS011;3007;50.770;0.250;2022-12-18T09:41:14;27.13;;;14.03;;
5961;SDS011;3007;50.770;0.250;2022-12-18T09:43:51;21.93;;;12.57;;
5961;SDS011;3007;50.770;0.250;2022-12-18T09:46:23;20.47;;;13.60;;
5961;SDS011;3007;50.770;0.250;2022-12-18T09:48:54;23.50;;;13.47;;
5961;SDS011;3007;50.770;0.250;2022-12-18T09:51:25;25.50;;;15.00;;
5961;SDS011;3007;50.770;0.250;2022-12-18T09:53:56;20.53;;;12.93;;
5961;SDS011;3007;50.770;0.250;2022-12-18T09:56:28;21.07;;;13.60;;
5961;SDS011;3007;50.770;0.250;2022-12-18T09:58:58;26.60;;;11.97;;
5961;SDS011;3007;50.770;0.250;2022-12-18T10:01:27;22.23;;;13.07;;
5961;SDS011;3007;50.770;0.250;2022-12-18T10:03:55;23.43;;;13.80;;
5961;SDS011;3007;50.770;0.250;2022-12-18T10:06:23;24.53;;;12.93;;
5961;SDS011;3007;50.770;0.250;2022-12-18T10:08:54;20.77;;;12.27;;
5961;SDS011;3007;50.770;0.250;2022-12-18T10:11:32;30.23;;;19.77;;
5961;SDS011;3007;50.770;0.250;2022-12-18T10:14:07;20.33;;;13.20;;
5961;SDS011;3007;50.770;0.250;2022-12-18T10:16:42;25.37;;;14.27;;
5961;SDS011;3007;50.770;0.250;2022-12-18T10:19:23;23.60;;;13.53;;
5961;SDS011;3007;50.770;0.250;2022-12-18T10:22:09;21.33;;;12.47;;
5961;SDS011;3007;50.770;0.250;2022-12-18T10:24:44;22.67;;;13.63;;
5961;SDS011;3007;50.770;0.250;2022-12-18T10:27:24;21.53;;;13.67;;
5961;SDS011;3007;50.770;0.250;2022-12-18T10:29:52;19.60;;;12.30;;
5961;SDS011;3007;50.770;0.250;2022-12-18T10:32:21;19.77;;;13.00;;
5961;SDS011;3007;50.770;0.250;2022-12-18T10:34:52;20.57;;;11.63;;
5961;SDS011;3007;50.770;0.250;2022-12-18T10:37:23;21.10;;;12.60;;
5961;SDS011;3007;50.770;0.250;2022-12-18T10:40:05;21.97;;;12.13;;
5961;SDS011;3007;50.770;0.250;2022-12-18T10:42:37;26.83;;;12.87;;
5961;SDS011;3007;50.770;0.250;2022-12-18T10:45:08;26.53;;;13.40;;
5961;SDS011;3007;50.770;0.250;2022-12-18T10:47:40;24.03;;;13.80;;
5961;SDS011;3007;50.770;0.250;2022-12-18T10:50:17;25.07;;;13.27;;
5961;SDS011;3007;50.770;0.250;2022-12-18T10:52:52;27.63;;;12.97;;
5961;SDS011;3007;50.770;0.250;2022-12-18T10:55:21;24.83;;;13.57;;
5961;SDS011;3007;50.770;0.250;2022-12-18T10:57:50;23.23;;;12.80;;
5961;SDS011;3007;50.770;0.250;2022-12-18T11:00:24;24.03;;;14.17;;
5961;SDS011;3007;50.770;0.250;2022-12-18T11:02:53;23.27;;;12.97;;
5961;SDS011;3007;50.770;0.250;2022-12-18T11:05:27;23.07;;;13.13;;
5961;SDS011;3007;50.770;0.250;2022-12-18T11:07:56;23.00;;;13.63;;
5961;SDS011;3007;50.770;0.250;2022-12-18T11:10:26;21.80;;;13.23;;
5961;SDS011;3007;50.770;0.250;2022-12-18T11:13:09;22.23;;;13.67;;
5961;SDS011;3007;50.770;0.250;2022-12-18T11:15:37;25.90;;;13.33;;
5961;SDS011;3007;50.770;0.250;2022-12-18T11:18:14;25.97;;;12.90;;
5961;SDS011;3007;50.770;0.250;2022-12-18T11:20:46;25.50;;;14.00;;
5961;SDS011;3007;50.770;0.250;2022-12-18T11:23:18;18.70;;;13.37;;
5961;SDS011;3007;50.770;0.250;2022-12-18T11:25:52;22.50;;;12.80;;
5961;SDS011;3007;50.770;0.250;2022-12-18T11:28:27;23.40;;;13.83;;
5961;SDS011;3007;50.770;0.250;2022-12-18T11:33:56;27.77;;;13.73;;
5961;SDS011;3007;50.770;0.250;2022-12-18T11:36:28;24.40;;;13.17;;
5961;SDS011;3007;50.770;0.250;2022-12-18T11:38:59;23.43;;;12.53;;
5961;SDS011;3007;50.770;0.250;2022-12-18T11:41:32;18.57;;;11.87;;
5961;SDS011;3007;50.770;0.250;2022-12-18T11:44:26;23.00;;;13.50;;
5961;SDS011;3007;50.770;0.250;2022-12-18T11:47:04;21.10;;;12.17;;
5961;SDS011;3007;50.770;0.250;2022-12-18T11:49:36;20.33;;;12.77;;
5961;SDS011;3007;50.770;0.250;2022-12-18T11:52:08;29.27;;;14.77;;
5961;SDS011;3007;50.770;0.250;2022-12-18T11:54:41;24.47;;;12.70;;
5961;SDS011;3007;50.770;0.250;2022-12-18T11:57:09;22.00;;;13.53;;
5961;SDS011;3007;50.770;0.250;2022-12-18T11:59:44;22.80;;;13.50;;
5961;SDS011;3007;50.770;0.250;2022-12-18T12:02:29;19.73;;;12.67;;
5961;SDS011;3007;50.770;0.250;2022-12-18T12:05:19;29.33;;;14.97;;
5961;SDS011;3007;50.770;0.250;2022-12-18T12:08:04;23.73;;;13.40;;
5961;SDS011;3007;50.770;0.250;2022-12-18T12:10:42;23.90;;;13.10;;
5961;SDS011;3007;50.770;0.250;2022-12-18T12:13:23;24.67;;;14.27;;
5961;SDS011;3007;50.770;0.250;2022-12-18T12:16:01;25.73;;;13.47;;
5961;SDS011;3007;50.770;0.250;2022-12-18T12:18:40;24.53;;;13.23;;
5961;SDS011;3007;50.770;0.250;2022-12-18T12:21:28;25.47;;;13.67;;
5961;SDS011;3007;50.770;0.250;2022-12-18T12:24:09;23.43;;;13.10;;
5961;SDS011;3007;50.770;0.250;2022-12-18T12:26:52;20.17;;;12.73;;
5961;SDS011;3007;50.770;0.250;2022-12-18T12:29:31;22.27;;;13.63;;
5961;SDS011;3007;50.770;0.250;2022-12-18T12:32:15;23.13;;;12.17;;
5961;SDS011;3007;50.770;0.250;2022-12-18T12:34:53;18.77;;;11.73;;
5961;SDS011;3007;50.770;0.250;2022-12-18T12:37:32;22.27;;;12.60;;
5961;SDS011;3007;50.770;0.250;2022-12-18T12:40:10;27.47;;;12.57;;
5961;SDS011;3007;50.770;0.250;2022-12-18T12:42:41;24.93;;;11.70;;
5961;SDS011;3007;50.770;0.250;2022-12-18T12:45:30;19.47;;;12.43;;
5961;SDS011;3007;50.770;0.250;2022-12-18T12:48:04;18.67;;;10.97;;
5961;SDS011;3007;50.770;0.250;2022-12-18T12:50:37;18.13;;;11.70;;
5961;SDS011;3007;50.770;0.250;2022-12-18T12:53:06;17.87;;;11.30;;
5961;SDS011;3007;50.770;0.250;2022-12-18T12:55:35;17.77;;;12.10;;
5961;SDS011;3007;50.770;0.250;2022-12-18T12:58:05;22.67;;;11.17;;
5961;SDS011;3007;50.770;0.250;2022-12-18T13:00:40;18.50;;;10.00;;
5961;SDS011;3007;50.770;0.250;2022-12-18T13:03:27;19.53;;;11.57;;
5961;SDS011;3007;50.770;0.250;2022-12-18T13:06:14;18.90;;;11.00;;
5961;SDS011;3007;50.770;0.250;2022-12-18T13:08:53;19.53;;;10.97;;
5961;SDS011;3007;50.770;0.250;2022-12-18T13:11:30;21.23;;;11.33;;
5961;SDS011;3007;50.770;0.250;2022-12-18T13:14:23;16.63;;;11.27;;
5961;SDS011;3007;50.770;0.250;2022-12-18T13:20:04;19.37;;;11.70;;
5961;SDS011;3007;50.770;0.250;2022-12-18T13:22:37;17.93;;;11.60;;
5961;SDS011;3007;50.770;0.250;2022-12-18T13:28:09;19.87;;;12.37;;
5961;SDS011;3007;50.770;0.250;2022-12-18T13:30:43;20.30;;;11.33;;
5961;SDS011;3007;50.770;0.250;2022-12-18T13:33:36;20.73;;;11.17;;
5961;SDS011;3007;50.770;0.250;2022-12-18T13:36:12;16.43;;;9.87;;
5961;SDS011;3007;50.770;0.250;2022-12-18T13:41:36;16.47;;;10.13;;
5961;SDS011;3007;50.770;0.250;2022-12-18T13:44:10;17.40;;;10.70;;
5961;SDS011;3007;50.770;0.250;2022-12-18T13:46:42;13.97;;;9.60;;
5961;SDS011;3007;50.770;0.250;2022-12-18T13:49:17;18.10;;;11.93;;
5961;SDS011;3007;50.770;0.250;2022-12-18T13:51:50;17.87;;;10.57;;
5961;SDS011;3007;50.770;0.250;2022-12-18T13:54:19;17.13;;;10.53;;
5961;SDS011;3007;50.770;0.250;2022-12-18T13:56:50;20.10;;;10.73;;
5961;SDS011;3007;50.770;0.250;2022-12-18T13:59:18;20.93;;;12.47;;
5961;SDS011;3007;50.770;0.250;2022-12-18T14:01:48;16.97;;;11.53;;
5961;SDS011;3007;50.770;0.250;2022-12-18T14:04:19;18.00;;;10.43;;
5961;SDS011;3007;50.770;0.250;2022-12-18T14:06:50;24.97;;;12.07;;
5961;SDS011;3007;50.770;0.250;2022-12-18T14:09:20;21.07;;;10.20;;
5961;SDS011;3007;50.770;0.250;2022-12-18T14:11:51;18.17;;;11.10;;
5961;SDS011;3007;50.770;0.250;2022-12-18T14:14:40;23.53;;;11.80;;
5961;SDS011;3007;50.770;0.250;2022-12-18T14:17:09;21.97;;;12.63;;
5961;SDS011;3007;50.770;0.250;2022-12-18T14:19:40;23.43;;;15.00;;
5961;SDS011;3007;50.770;0.250;2022-12-18T14:22:13;18.40;;;10.33;;
5961;SDS011;3007;50.770;0.250;2022-12-18T14:24:42;48.27;;;11.57;;
5961;SDS011;3007;50.770;0.250;2022-12-18T14:27:19;16.57;;;11.10;;
5961;SDS011;3007;50.770;0.250;2022-12-18T14:29:48;15.93;;;10.10;;
5961;SDS011;3007;50.770;0.250;2022-12-18T14:32:16;20.47;;;10.77;;
5961;SDS011;3007;50.770;0.250;2022-12-18T14:34:45;17.70;;;9.70;;
5961;SDS011;3007;50.770;0.250;2022-12-18T14:37:15;19.47;;;11.50;;
5961;SDS011;3007;50.770;0.250;2022-12-18T14:39:52;17.20;;;9.90;;
5961;SDS011;3007;50.770;0.250;2022-12-18T14:42:20;14.03;;;9.80;;
5961;SDS011;3007;50.770;0.250;2022-12-18T14:44:47;20.43;;;11.80;;
5961;SDS011;3007;50.770;0.250;2022-12-18T14:47:14;18.60;;;10.33;;
5961;SDS011;3007;50.770;0.250;2022-12-18T14:49:42;17.83;;;11.13;;
5961;SDS011;3007;50.770;0.250;2022-12-18T14:52:17;20.43;;;11.50;;
5961;SDS011;3007;50.770;0.250;2022-12-18T14:54:49;22.10;;;12.17;;
5961;SDS011;3007;50.770;0.250;2022-12-18T14:57:18;17.13;;;10.50;;
5961;SDS011;3007;50.770;0.250;2022-12-18T14:59:48;20.83;;;12.00;;
5961;SDS011;3007;50.770;0.250;2022-12-18T15:02:18;19.67;;;10.70;;
5961;SDS011;3007;50.770;0.250;2022-12-18T15:04:48;17.47;;;10.90;;
5961;SDS011;3007;50.770;0.250;2022-12-18T15:07:34;26.97;;;12.47;;
5961;SDS011;3007;50.770;0.250;2022-12-18T15:10:10;18.70;;;10.17;;
5961;SDS011;3007;50.770;0.250;2022-12-18T15:12:41;20.30;;;11.40;;
5961;SDS011;3007;50.770;0.250;2022-12-18T15:18:14;27.77;;;13.40;;
5961;SDS011;3007;50.770;0.250;2022-12-18T15:20:43;22.93;;;12.30;;
5961;SDS011;3007;50.770;0.250;2022-12-18T15:23:18;26.60;;;12.93;;
5961;SDS011;3007;50.770;0.250;2022-12-18T15:25:47;33.50;;;13.40;;
5961;SDS011;3007;50.770;0.250;2022-12-18T15:28:23;25.13;;;13.37;;
5961;SDS011;3007;50.770;0.250;2022-12-18T15:33:59;33.50;;;15.93;;
5961;SDS011;3007;50.770;0.250;2022-12-18T15:36:31;29.60;;;15.93;;